Airport View

Enter AWOS ICAO identifier for current METAR.

ex. KFNL

KFDW 200025Z AUTO 02004KT 10SM CLR 17/14 A3021 RMK AO1

20 Oct 2020 00:28

Frequency: 119.075

Phone: 803-712-2577

Other Area AWOS: KCUB - KCAE - KEOE - KCDN

TAF KCUB 192328Z 2000/2024 00000KT P6SM SCT035 FM201500 04005KT P6SM BKN040